Latest Weather Observations for Amberley

IDQ60801

Issued at 8:32 am EST Thursday 28 July 2016 (issued every 30 minutes, with the page automatically refreshed every 10 minutes)

About weather observations | Map of weather stations | Latest weather observations for QLD | Other Formats
Station Details ID: 040004 Name: AMBERLEY AMO Lat: -27.63 Lon: 152.71 Height: 24.2 m
Data from the previous 72 hours. | See also: Recent months at Amberley
Date/Time
EST
Temp
°C
App
Temp
°C
Dew
Point
°C
Rel
Hum
%
Delta-T
°C
Wind Press
QNH
hPa
Press
MSL
hPa
Rain since
9am
mm
Dir  Spd
km/h
Gust
km/h
Spd
kts
Gust
kts
28/08:00am 6.4 4.0 4.3 86 0.9 S 6 9 3 5 1024.2 1024.2 0.0
28/07:30am 4.1 1.8 2.9 92 0.5 SW 4 7 2 4 1023.8 1023.8 0.0
28/07:00am 2.1 -0.9 1.0 92 0.4 NW 6 7 3 4 1023.2 1023.2 0.0
28/06:30am 1.5 -0.4 0.7 94 0.3 CALM 0 0 0 0 1022.9 1022.9 0.0
28/06:00am 2.3 0.5 1.0 91 0.5 CALM 0 0 0 0 1022.5 1022.5 0.0
28/05:30am 2.2 0.4 1.1 92 0.4 CALM 0 0 0 0 1022.2 1022.2 0.0
28/05:00am 2.3 0.5 1.2 92 0.4 CALM 0 0 0 0 1021.9 1021.9 0.0
28/04:30am 2.9 0.8 1.9 93 0.4 S 2 7 1 4 1021.6 1021.6 0.0
28/04:00am 2.8 1.1 1.8 93 0.4 CALM 0 0 0 0 1021.4 1021.4 0.0
28/03:30am 2.9 1.2 1.6 91 0.5 CALM 0 0 0 0 1021.4 1021.4 0.0
28/03:00am 3.5 1.9 2.5 93 0.4 CALM 0 0 0 0 1021.8 1021.8 0.0
28/02:30am 4.3 0.6 2.3 87 0.8 WNW 11 15 6 8 1021.9 1021.9 0.0
28/02:00am 5.0 3.2 3.3 89 0.7 N 2 7 1 4 1021.9 1021.9 0.0
28/01:30am 4.4 2.5 2.7 89 0.7 NW 2 9 1 5 1022.2 1022.2 0.0
28/01:00am 5.1 2.9 3.4 89 0.7 NNE 4 9 2 5 1022.1 1022.1 0.0
28/12:30am 5.6 2.5 3.4 86 0.9 NE 9 17 5 9 1022.0 1022.0 0.0
28/12:00am 6.7 4.9 3.4 79 1.4 NNW 2 6 1 3 1021.5 1021.5 0.0
 
Date/Time
EST
Temp
°C
App
Temp
°C
Dew
Point
°C
Rel
Hum
%
Delta-T
°C
Wind Press
QNH
hPa
Press
MSL
hPa
Rain since
9am
mm
Dir  Spd
km/h
Gust
km/h
Spd
kts
Gust
kts
27/11:30pm 6.2 3.7 3.6 83 1.1 ENE 6 9 3 5 1021.3 1021.3 0.0
27/11:00pm 7.5 5.8 3.8 77 1.6 E 2 7 1 4 1021.2 1021.2 0.0
27/10:30pm 7.1 5.3 3.6 78 1.5 NE 2 9 1 5 1021.2 1021.2 0.0
27/10:00pm 8.3 6.6 3.9 74 1.9 NW 2 7 1 4 1021.2 1021.2 0.0
27/09:30pm 9.3 7.6 3.8 68 2.4 ESE 2 9 1 5 1020.8 1020.8 0.0
27/09:00pm 10.9 8.3 3.1 58 3.4 WNW 6 9 3 5 1020.7 1020.7 0.0
27/08:30pm 9.9 7.3 4.0 67 2.6 SSE 7 13 4 7 1020.2 1020.2 0.0
27/08:00pm 14.2 10.9 2.4 45 5.2 W 9 11 5 6 1019.7 1019.7 0.0
27/07:30pm 13.5 11.6 2.9 48 4.7 E 2 7 1 4 1019.1 1019.1 0.0
27/07:00pm 13.8 11.2 3.0 48 4.8 NW 6 17 3 9 1018.6 1018.6 0.0
27/06:30pm 15.4 11.5 3.3 44 5.5 W 13 17 7 9 1018.0 1018.0 0.0
27/06:00pm 14.7 9.7 3.7 47 5.0 WNW 19 22 10 12 1017.6 1017.6 0.0
27/05:30pm 14.7 10.9 3.7 47 5.0 NW 13 15 7 8 1017.3 1017.3 0.0
27/05:00pm 17.3 13.4 3.2 39 6.5 WNW 13 17 7 9 1017.0 1017.0 0.0
27/04:30pm 19.0 14.1 2.2 32 7.7 NW 17 22 9 12 1016.6 1016.6 0.0
27/04:00pm 19.7 13.8 1.7 30 8.2 WNW 22 35 12 19 1016.7 1016.7 0.0
27/03:30pm 19.5 13.5 1.3 29 8.2 WNW 22 28 12 15 1016.5 1016.5 0.0
27/03:00pm 18.5 12.5 1.3 31 7.7 W 22 32 12 17 1016.7 1016.7 0.0
27/02:30pm 19.2 13.3 1.5 30 8.0 WNW 22 30 12 16 1016.5 1016.5 0.0
27/02:00pm 19.3 13.9 1.0 29 8.2 WNW 19 28 10 15 1016.5 1016.5 0.0
27/01:30pm 18.7 13.1 1.3 31 7.8 WNW 20 30 11 16 1017.0 1017.0 0.0
27/01:00pm 18.3 12.7 0.9 31 7.7 WNW 20 28 11 15 1017.2 1017.2 0.0
27/12:30pm 18.6 12.9 -0.7 27 8.3 W 19 26 10 14 1017.4 1017.4 0.0
27/12:00pm 18.9 14.3 -0.9 26 8.5 W 13 20 7 11 1017.7 1017.7 0.0
27/11:30am 19.2 14.7 -0.3 27 8.5 WNW 13 17 7 9 1018.0 1018.0 0.0
27/11:00am 18.4 14.3 0.0 29 8.0 WSW 11 15 6 8 1018.6 1018.6 0.0
27/10:30am 17.8 13.0 0.4 31 7.6 WNW 15 20 8 11 1018.9 1018.9 0.0
27/10:00am 17.1 12.8 1.2 34 7.0 W 13 17 7 9 1018.7 1018.7 0.0
27/09:30am 16.6 12.2 2.7 39 6.3 WNW 15 17 8 9 1019.1 1019.1 0.0
27/09:00am 15.8 10.7 3.0 42 5.8 WNW 19 24 10 13 1019.2 1019.2 0.0
27/08:30am 15.4 10.6 2.4 41 5.8 WNW 17 22 9 12 1018.9 1018.9 0.0
27/08:00am 15.0 10.5 2.4 42 5.6 NW 15 22 8 12 1018.4 1018.4 0.0
27/07:30am 14.9 9.7 2.2 42 5.6 NW 19 26 10 14 1018.5 1018.5 0.0
27/07:00am 14.9 8.7 1.9 41 5.7 NW 24 30 13 16 1018.4 1018.4 0.0
27/06:30am 14.6 8.9 2.7 44 5.3 NW 22 30 12 16 1018.3 1018.3 0.0
27/06:00am 15.0 8.8 2.1 41 5.7 NW 24 30 13 16 1018.3 1018.3 0.0
27/05:30am 15.0 8.4 1.8 41 5.8 NW 26 32 14 17 1017.5 1017.5 0.0
27/05:00am 14.7 9.8 2.2 43 5.5 NW 17 22 9 12 1017.5 1017.5 0.0
27/04:30am 14.4 9.0 2.7 45 5.2 NW 20 26 11 14 1017.3 1017.3 0.0
27/04:00am 14.3 9.9 2.9 46 5.1 NW 15 20 8 11 1016.9 1016.9 0.0
27/03:30am 14.5 9.7 2.6 44 5.3 NW 17 22 9 12 1017.2 1017.2 0.0
27/03:00am 14.4 10.4 3.0 46 5.1 NNW 13 19 7 10 1016.6 1016.6 0.0
27/02:30am 14.8 10.4 2.7 44 5.4 NW 15 17 8 9 1017.2 1017.2 0.0
27/02:00am 15.1 11.0 2.2 41 5.7 NW 13 17 7 9 1017.0 1017.0 0.0
27/01:30am 15.4 11.2 1.8 40 6.0 NW 13 17 7 9 1017.2 1017.2 0.0
27/01:00am 15.2 11.1 2.1 41 5.8 NW 13 17 7 9 1017.2 1017.2 0.0
27/12:30am 15.9 10.6 1.6 38 6.3 NW 19 24 10 13 1017.2 1017.2 0.0
27/12:00am 15.8 10.5 1.7 38 6.2 NW 19 28 10 15 1017.3 1017.3 0.0
 
Date/Time
EST
Temp
°C
App
Temp
°C
Dew
Point
°C
Rel
Hum
%
Delta-T
°C
Wind Press
QNH
hPa
Press
MSL
hPa
Rain since
9am
mm
Dir  Spd
km/h
Gust
km/h
Spd
kts
Gust
kts
26/11:30pm 15.8 10.6 2.4 40 6.0 NW 19 26 10 14 1017.1 1017.1 0.0
26/11:00pm 15.5 11.4 2.5 41 5.8 NNW 13 17 7 9 1017.1 1017.1 0.0
26/10:30pm 15.4 11.4 3.0 43 5.6 NW 13 17 7 9 1017.4 1017.4 0.0
26/10:00pm 15.2 11.0 3.9 47 5.2 NW 15 19 8 10 1017.4 1017.4 0.0
26/09:30pm 14.8 11.4 4.2 49 4.9 NNW 11 15 6 8 1017.3 1017.3 0.0
26/09:00pm 15.9 12.9 4.0 45 5.5 NNW 9 13 5 7 1017.3 1017.3 0.0
26/08:30pm 16.2 12.2 2.7 40 6.1 NW 13 15 7 8 1017.1 1017.1 0.0
26/08:00pm 15.3 12.7 4.0 47 5.2 NNW 7 15 4 8 1017.2 1017.2 0.0
26/07:30pm 15.5 10.9 3.7 45 5.4 NW 17 19 9 10 1017.1 1017.1 0.0
26/07:00pm 15.4 12.0 4.2 47 5.2 NNW 11 15 6 8 1016.6 1016.6 0.0
26/06:30pm 15.2 14.1 5.0 50 4.8 CALM 0 7 0 4 1016.2 1016.2 0.0
26/06:00pm 15.3 14.4 5.9 53 4.5 CALM 0 4 0 2 1016.1 1016.1 0.0
26/05:30pm 15.8 13.9 4.7 47 5.2 N 4 7 2 4 1015.8 1015.8 0.0
26/05:00pm 16.6 13.6 4.2 43 5.8 N 9 11 5 6 1015.7 1015.7 0.0
26/04:30pm 18.0 14.8 2.8 36 7.0 N 9 15 5 8 1015.9 1015.9 0.0
26/04:00pm 18.3 14.2 2.0 33 7.4 N 13 17 7 9 1015.8 1015.8 0.0
26/03:30pm 19.0 14.4 1.5 31 7.9 NNW 15 20 8 11 1015.9 1015.9 0.0
26/03:00pm 20.9 15.6 -0.8 23 9.5 NW 17 26 9 14 1015.9 1015.9 0.0
26/02:30pm 20.3 15.0 -0.8 24 9.2 NNW 17 26 9 14 1015.9 1015.9 0.0
26/02:00pm 20.9 15.7 0.0 24 9.3 NW 17 28 9 15 1016.4 1016.4 0.0
26/01:30pm 18.8 14.8 0.8 30 8.0 NNW 11 19 6 10 1016.7 1016.7 0.0
26/01:00pm 18.5 13.9 -0.9 27 8.3 NW 13 19 7 10 1016.8 1016.8 0.0
26/12:30pm 18.9 14.6 -1.7 24 8.7 NNW 11 15 6 8 1017.4 1017.4 0.0
26/12:00pm 18.3 15.3 0.9 31 7.7 NNW 6 13 3 7 1018.0 1018.0 0.0
26/11:30am 18.2 15.4 2.1 34 7.3 WNW 6 15 3 8 1018.7 1018.7 0.0
26/11:00am 17.5 14.7 2.2 36 6.9 WSW 6 7 3 4 1018.9 1018.9 0.0
26/10:30am 17.0 14.0 1.7 35 6.8 WNW 7 11 4 6 1019.1 1019.1 0.0
26/10:00am 16.4 14.0 2.0 38 6.4 W 4 7 2 4 1019.1 1019.1 0.0
26/09:30am 16.8 13.0 1.7 36 6.7 NW 11 15 6 8 1019.5 1019.5 0.0
26/09:00am 14.9 11.3 2.8 44 5.4 NW 11 13 6 7 1019.4 1019.4 0.0
26/08:30am 13.8 11.2 4.2 52 4.4 NW 7 11 4 6 1019.2 1019.2 0.0
26/08:00am 11.5 10.7 6.6 72 2.3 CALM 0 0 0 0 1019.0 1019.0 0.0
26/07:30am 9.6 9.0 7.5 87 1.0 CALM 0 0 0 0 1019.0 1019.0 0.0
26/07:00am 8.8 8.1 6.9 88 0.9 CALM 0 0 0 0 1018.8 1018.8 0.0
26/06:30am 8.5 7.8 6.8 89 0.8 CALM 0 0 0 0 1018.6 1018.6 0.0
26/06:00am 8.5 6.4 6.5 87 0.9 SSW 7 7 4 4 1018.3 1018.3 0.0
26/05:30am 9.2 7.6 6.2 81 1.4 SSW 4 9 2 5 1018.0 1018.0 0.0
26/05:00am 8.9 7.9 5.8 81 1.4 CALM 0 0 0 0 1018.3 1018.3 0.0
26/04:30am 9.7 8.8 6.0 78 1.7 CALM 0 0 0 0 1017.7 1017.7 0.0
26/04:00am 10.6 9.6 5.8 72 2.2 CALM 0 0 0 0 1017.4 1017.4 0.0
26/03:30am 10.4 9.6 6.6 77 1.8 CALM 0 0 0 0 1017.8 1017.8 0.0
26/03:00am 10.3 8.2 6.7 78 1.7 WNW 7 7 4 4 1017.6 1017.6 0.0
26/02:30am 10.4 9.2 6.6 77 1.8 NW 2 7 1 4 1017.9 1017.9 0.0
26/02:00am 10.6 9.9 6.8 77 1.8 CALM 0 0 0 0 1018.2 1018.2 0.0
26/01:30am 10.5 9.0 6.9 78 1.7 ENE 4 11 2 6 1017.3 1017.3 0.0
26/01:00am 10.7 10.1 7.3 79 1.6 CALM 0 0 0 0 1018.3 1018.3 0.0
26/12:30am 10.8 10.0 6.3 74 2.1 CALM 0 0 0 0 1018.1 1018.1 0.0
26/12:00am 11.9 10.9 5.4 64 3.0 CALM 0 0 0 0 1018.4 1018.4 0.0
 
Date/Time
EST
Temp
°C
App
Temp
°C
Dew
Point
°C
Rel
Hum
%
Delta-T
°C
Wind Press
QNH
hPa
Press
MSL
hPa
Rain since
9am
mm
Dir  Spd
km/h
Gust
km/h
Spd
kts
Gust
kts
25/11:30pm 10.9 8.9 6.9 76 1.9 E 7 9 4 5 1017.9 1017.9 0.0
25/11:00pm 11.1 9.1 6.4 73 2.2 WNW 6 9 3 5 1018.1 1018.1 0.0
25/10:30pm 12.1 10.3 5.4 63 3.1 ESE 4 9 2 5 1018.2 1018.2 0.0
25/10:00pm 12.8 11.1 5.8 62 3.3 ENE 4 9 2 5 1018.0 1018.0 0.0
25/09:30pm 12.3 9.9 5.1 61 3.3 SSW 7 9 4 5 1017.8 1017.8 0.0
25/09:00pm 12.9 10.5 5.1 59 3.6 SSW 7 9 4 5 1018.0 1018.0 0.0
25/08:30pm 14.1 12.7 3.5 49 4.8 CALM 0 0 0 0 1017.9 1017.9 0.0
25/08:00pm 14.3 10.4 3.5 48 4.9 S 13 13 7 7 1017.5 1017.5 0.0
25/07:30pm 13.6 10.4 3.0 48 4.7 E 9 11 5 6 1017.3 1017.3 0.0
25/07:00pm 15.4 12.6 3.0 43 5.6 SSW 7 11 4 6 1017.0 1017.0 0.0
25/06:30pm 16.6 11.7 1.7 36 6.6 W 17 19 9 10 1016.7 1016.7 0.0
25/06:00pm 16.3 12.1 1.6 37 6.5 W 13 19 7 10 1016.3 1016.3 0.0
25/05:30pm 17.6 12.9 1.1 33 7.3 W 15 19 8 10 1015.9 1015.9 0.0
25/05:00pm 19.3 13.7 1.0 29 8.2 W 20 28 11 15 1015.5 1015.5 0.0
25/04:30pm 20.3 15.1 0.0 25 9.0 WNW 17 26 9 14 1015.3 1015.3 0.0
25/04:00pm 21.3 15.6 -0.7 23 9.7 WNW 19 28 10 15 1015.1 1015.1 0.0
25/03:30pm 22.4 15.7 -0.8 21 10.3 WNW 24 30 13 16 1014.9 1014.9 0.0
25/03:00pm 22.5 16.2 -1.0 21 10.4 W 22 30 12 16 1014.7 1014.7 0.0
25/02:30pm 22.5 16.1 -1.4 20 10.5 WNW 22 32 12 17 1014.7 1014.7 0.0
25/02:00pm 23.0 17.2 -0.3 21 10.5 WNW 20 39 11 21 1014.8 1014.8 0.0
25/01:30pm 22.6 16.7 -0.8 21 10.4 WNW 20 30 11 16 1015.1 1015.1 0.0
25/01:00pm 21.5 15.9 0.1 24 9.6 WNW 19 28 10 15 1015.5 1015.5 0.0
25/12:30pm 21.6 15.9 -0.9 22 9.9 W 19 26 10 14 1015.9 1015.9 0.0
25/12:00pm 20.7 16.3 0.4 26 9.1 W 13 22 7 12 1016.5 1016.5 0.0
25/11:30am 20.0 16.4 0.5 27 8.7 NW 9 13 5 7 1017.0 1017.0 0.0
25/11:00am 19.5 15.4 -0.1 27 8.6 WSW 11 19 6 10 1017.5 1017.5 0.0
25/10:30am 19.0 14.6 0.4 28 8.2 WNW 13 22 7 12 1018.2 1018.2 0.0
25/10:00am 18.1 14.3 1.9 33 7.3 NW 11 17 6 9 1018.4 1018.4 0.0
25/09:30am 17.4 14.1 2.7 37 6.7 W 9 15 5 8 1018.7 1018.7 0.0
25/09:00am 16.1 12.8 2.5 40 6.1 WSW 9 15 5 8 1018.8 1018.8 0.0

Other Formats:

Comma delimited format used in spreadsheet applications
http://www.bom.gov.au/fwo/IDQ60801/IDQ60801.94568.axf

JavaScript Object Notation format (JSON) in row-major order
http://www.bom.gov.au/fwo/IDQ60801/IDQ60801.94568.json